Time;durP1;ratioP1;P1;durP2;ratioP2;P2;SDS_P1;SDS_P2;PMS_P1;PMS_P2;Temp;Humidity;BMP_temperature;BMP_pressure;BME280_temperature;BME280_humidity;BME280_pressure;Samples;Min_cycle;Max_cycle;Signal;HPM_P1;HPM_P2
2021/09/13 00:01:26;;;;;;;2.60;2.50;;;;;;;18.43;67.79;100505.13;4996546;28;20410;-79
2021/09/13 00:03:52;;;;;;;2.43;2.23;;;;;;;18.34;68.16;100504.16;4993942;28;20543;-79
2021/09/13 00:06:18;;;;;;;2.50;2.30;;;;;;;18.30;68.44;100503.91;5002968;28;20423;-79
2021/09/13 00:08:43;;;;;;;5.00;2.47;;;;;;;18.33;68.71;100510.75;5001542;28;20480;-79
2021/09/13 00:11:08;;;;;;;2.53;2.10;;;;;;;18.35;68.58;100501.09;5008031;28;20529;-79
2021/09/13 00:13:34;;;;;;;3.13;2.78;;;;;;;18.34;68.73;100498.66;4992181;28;20395;-79
2021/09/13 00:16:00;;;;;;;4.10;2.90;;;;;;;18.32;69.03;100498.13;5000285;28;20419;-79
2021/09/13 00:18:26;;;;;;;3.50;1.90;;;;;;;18.29;69.24;100490.47;4992301;28;20435;-79
2021/09/13 00:20:51;;;;;;;2.63;2.43;;;;;;;18.27;69.10;100495.47;4999510;28;20815;-79
2021/09/13 00:23:16;;;;;;;2.53;2.13;;;;;;;18.25;69.20;100484.78;4997996;28;20398;-79
2021/09/13 00:25:42;;;;;;;2.28;2.17;;;;;;;18.24;69.27;100494.13;4994996;28;20429;-79
2021/09/13 00:28:07;;;;;;;3.10;2.50;;;;;;;18.24;69.33;100494.13;4998632;28;20402;-79
2021/09/13 00:30:32;;;;;;;3.90;3.00;;;;;;;18.24;69.67;100493.31;4997972;28;20538;-79
2021/09/13 00:32:58;;;;;;;2.67;2.47;;;;;;;18.23;69.98;100497.97;4994045;28;20774;-79
2021/09/13 00:35:27;;;;;;;4.30;3.00;;;;;;;18.24;70.09;100496.06;5003688;28;20509;-79
2021/09/13 00:37:53;;;;;;;5.80;2.93;;;;;;;18.26;70.28;100496.56;4999015;28;20486;-79
2021/09/13 00:40:18;;;;;;;2.57;2.37;;;;;;;18.27;70.22;100482.56;4991614;28;21004;-79
2021/09/13 00:42:44;;;;;;;3.88;2.80;;;;;;;18.28;70.25;100483.34;4997220;28;20416;-79
2021/09/13 00:45:10;;;;;;;3.17;2.90;;;;;;;18.30;70.42;100489.38;4996808;28;20766;-79
2021/09/13 00:47:35;;;;;;;3.20;2.60;;;;;;;18.29;70.65;100495.97;5000088;28;20402;-79
2021/09/13 00:50:00;;;;;;;3.73;3.17;;;;;;;18.23;71.03;100491.66;5005097;28;20398;-79
2021/09/13 00:52:26;;;;;;;3.50;3.20;;;;;;;18.18;71.33;100494.50;4999000;28;20406;-79
2021/09/13 00:54:51;;;;;;;4.10;3.70;;;;;;;18.15;71.64;100488.47;5000453;28;20398;-79
2021/09/13 00:57:17;;;;;;;3.40;3.20;;;;;;;18.07;72.02;100486.41;5005899;28;20414;-79
2021/09/13 00:59:43;;;;;;;3.60;3.40;;;;;;;18.11;72.16;100481.13;5007725;28;20398;-78
2021/09/13 01:02:08;;;;;;;3.37;3.07;;;;;;;18.15;72.16;100482.16;4998203;28;20904;-79
2021/09/13 01:04:33;;;;;;;5.30;3.28;;;;;;;18.18;72.00;100478.81;5005326;28;20412;-79
2021/09/13 01:06:59;;;;;;;3.77;3.50;;;;;;;18.20;71.96;100486.78;4998190;28;20420;-79
2021/09/13 01:09:24;;;;;;;4.00;3.60;;;;;;;18.18;72.15;100483.53;5004845;28;20731;-79
2021/09/13 01:11:49;;;;;;;4.78;2.90;;;;;;;18.19;72.16;100485.94;5008436;28;20758;-79
2021/09/13 01:14:19;;;;;;;3.60;3.40;;;;;;;18.18;72.77;100483.53;5002336;28;20781;-79
2021/09/13 01:16:45;;;;;;;3.22;3.00;;;;;;;18.19;72.81;100483.22;4999606;28;20468;-79
2021/09/13 01:19:10;;;;;;;5.70;3.40;;;;;;;18.20;72.80;100473.88;5009784;28;20430;-78
2021/09/13 01:21:39;;;;;;;3.95;3.50;;;;;;;18.16;72.93;100478.31;4998130;28;20398;-78
2021/09/13 01:24:05;;;;;;;5.63;4.13;;;;;;;18.17;72.86;100479.97;4998606;28;20497;-79
2021/09/13 01:26:30;;;;;;;5.53;4.40;;;;;;;18.18;72.63;100472.56;5015365;28;20740;-79
2021/09/13 01:28:55;;;;;;;4.27;3.87;;;;;;;18.17;72.67;100468.97;5002141;28;20491;-79
2021/09/13 01:31:21;;;;;;;5.63;4.20;;;;;;;18.16;72.60;100475.56;5007414;28;20414;-79
2021/09/13 01:33:46;;;;;;;4.00;3.77;;;;;;;18.16;72.54;100475.56;4998224;28;20405;-78
2021/09/13 01:36:11;;;;;;;3.50;2.40;;;;;;;18.15;70.58;100468.44;4997602;28;20557;-79
2021/09/13 01:38:37;;;;;;;12.57;2.80;;;;;;;18.08;69.45;100471.56;5015151;28;20413;-79
2021/09/13 01:41:02;;;;;;;2.90;2.63;;;;;;;17.98;69.34;100463.44;5010218;28;20489;-78
2021/09/13 01:43:27;;;;;;;2.90;2.70;;;;;;;17.92;69.62;100466.56;4999132;28;20801;-79
2021/09/13 01:45:53;;;;;;;3.00;2.77;;;;;;;17.85;70.10;100463.38;4998679;28;20410;-79
2021/09/13 01:48:18;;;;;;;4.60;2.77;;;;;;;17.80;70.04;100458.75;5001212;28;20895;-79
2021/09/13 01:50:43;;;;;;;5.55;2.75;;;;;;;17.79;69.83;100456.28;5025058;28;20412;-78
2021/09/13 01:53:09;;;;;;;3.57;2.80;;;;;;;17.77;69.83;100453.88;4997722;28;20468;-78
2021/09/13 01:55:34;;;;;;;2.83;2.60;;;;;;;17.75;69.91;100447.03;4997445;28;20478;-79
2021/09/13 01:57:59;;;;;;;2.88;2.67;;;;;;;17.75;70.05;100450.56;4998342;28;20592;-78
2021/09/13 02:00:25;;;;;;;3.73;2.97;;;;;;;17.74;70.34;100440.75;5010019;28;20413;-79
2021/09/13 02:02:50;;;;;;;3.00;2.77;;;;;;;17.75;70.14;100453.31;5008660;28;20454;-79
2021/09/13 02:05:15;;;;;;;5.60;2.90;;;;;;;17.73;69.73;100450.06;5006171;28;20453;-79
2021/09/13 02:07:41;;;;;;;2.97;2.77;;;;;;;17.72;69.56;100445.69;4998767;28;20437;-78
2021/09/13 02:10:07;;;;;;;3.20;2.93;;;;;;;17.66;69.63;100435.91;5002744;28;20410;-79
2021/09/13 02:12:32;;;;;;;5.17;2.70;;;;;;;17.66;69.70;100443.28;5007089;28;20411;-79
2021/09/13 02:14:58;;;;;;;3.77;3.03;;;;;;;17.64;70.03;100440.84;5000681;28;20914;-79
2021/09/13 02:17:23;;;;;;;4.10;3.43;;;;;;;17.60;70.22;100437.06;4999450;28;20394;-78
2021/09/13 02:19:48;;;;;;;4.17;3.77;;;;;;;17.58;71.05;100440.09;5014934;28;20405;-79
2021/09/13 02:22:15;;;;;;;5.60;3.40;;;;;;;17.54;71.48;100441.75;4994418;28;20413;-79
2021/09/13 02:24:40;;;;;;;4.50;4.10;;;;;;;17.55;71.96;100439.84;5002107;28;20484;-79
2021/09/13 02:27:06;;;;;;;4.90;3.80;;;;;;;17.58;72.13;100447.50;4999538;28;20436;-79
2021/09/13 02:29:32;;;;;;;4.60;4.13;;;;;;;17.58;71.80;100444.78;5003017;28;20431;-79
2021/09/13 02:31:57;;;;;;;4.25;4.03;;;;;;;17.60;71.96;100443.38;4997461;28;20405;-79
2021/09/13 02:34:23;;;;;;;5.00;3.80;;;;;;;17.59;71.70;100449.13;4994113;28;20418;-78
2021/09/13 02:36:48;;;;;;;4.27;3.97;;;;;;;17.58;71.80;100453.00;5004589;28;20449;-79
2021/09/13 02:39:13;;;;;;;4.23;3.73;;;;;;;17.60;72.07;100445.28;5012195;28;20402;-79
2021/09/13 02:41:39;;;;;;;3.97;3.63;;;;;;;17.61;72.15;100452.41;4995853;28;20429;-78
2021/09/13 02:44:05;;;;;;;8.43;4.73;;;;;;;17.59;72.35;100455.44;5019735;28;20402;-79
2021/09/13 02:46:30;;;;;;;4.43;4.13;;;;;;;17.59;72.55;100460.09;4993470;28;20769;-79
2021/09/13 02:48:56;;;;;;;4.70;4.40;;;;;;;17.60;72.38;100456.25;4997371;28;20402;-79
2021/09/13 02:51:21;;;;;;;5.50;4.68;;;;;;;17.58;72.55;100453.00;5005227;28;20486;-78
2021/09/13 02:53:47;;;;;;;4.33;4.00;;;;;;;17.57;72.61;100451.34;4993317;28;20398;-79
2021/09/13 02:56:12;;;;;;;5.50;4.57;;;;;;;17.58;72.75;100456.53;4998859;28;20523;-79
2021/09/13 02:58:39;;;;;;;5.00;4.50;;;;;;;17.57;72.72;100452.16;5014748;28;20529;-79
2021/09/13 03:01:04;;;;;;;5.18;4.63;;;;;;;17.56;72.87;100449.72;4997469;28;20416;-79
2021/09/13 03:03:29;;;;;;;5.07;4.33;;;;;;;17.55;72.84;100450.81;5009572;28;20397;-79
2021/09/13 03:05:54;;;;;;;5.33;4.80;;;;;;;17.54;72.87;100451.91;5007707;28;20477;-79
2021/09/13 03:08:20;;;;;;;4.53;3.97;;;;;;;17.49;73.22;100451.94;4997941;28;20491;-79
2021/09/13 03:10:45;;;;;;;4.63;4.33;;;;;;;17.50;73.29;100445.38;4994968;28;20411;-78
2021/09/13 03:13:11;;;;;;;5.43;4.97;;;;;;;17.50;73.08;100442.63;5001165;28;20510;-79
2021/09/13 03:15:37;;;;;;;6.07;5.07;;;;;;;17.46;72.99;100438.81;4994495;28;20418;-79
2021/09/13 03:18:02;;;;;;;5.63;5.10;;;;;;;17.39;73.43;100444.66;5004394;28;20525;-78
2021/09/13 03:20:27;;;;;;;5.60;5.00;;;;;;;17.38;73.63;100442.22;4997493;28;20410;-78
2021/09/13 03:22:53;;;;;;;6.60;6.00;;;;;;;17.36;73.65;100445.22;5007546;28;20888;-79
2021/09/13 03:25:18;;;;;;;6.97;5.50;;;;;;;17.36;73.85;100447.97;4992719;28;20432;-78
2021/09/13 03:27:43;;;;;;;6.23;5.63;;;;;;;17.35;73.58;100438.16;5001350;28;20476;-79
2021/09/13 03:30:10;;;;;;;5.80;5.40;;;;;;;17.35;73.78;100440.06;5000626;28;20421;-79
2021/09/13 03:32:35;;;;;;;6.13;5.55;;;;;;;17.35;73.67;100437.31;4992278;28;20822;-79
2021/09/13 03:35:00;;;;;;;6.10;5.53;;;;;;;17.33;73.66;100432.13;5003678;28;21010;-78
2021/09/13 03:37:25;;;;;;;7.47;5.43;;;;;;;17.31;73.69;100428.03;5003809;28;20448;-78
2021/09/13 03:39:51;;;;;;;6.77;6.10;;;;;;;17.25;73.69;100435.50;5019997;28;20428;-78
2021/09/13 03:42:16;;;;;;;6.80;6.30;;;;;;;17.22;73.93;100435.28;4996074;28;20484;-79
2021/09/13 03:44:42;;;;;;;6.85;5.80;;;;;;;17.23;73.83;100432.22;5010961;28;20407;-78
2021/09/13 03:47:07;;;;;;;5.70;5.30;;;;;;;17.25;73.73;100440.16;5013367;28;20399;-79
2021/09/13 03:49:33;;;;;;;7.95;6.53;;;;;;;17.23;73.79;100434.97;5005608;28;20408;-79
2021/09/13 03:51:58;;;;;;;5.93;5.50;;;;;;;17.20;73.92;100432.81;4996088;28;20764;-79
2021/09/13 03:54:24;;;;;;;6.65;6.13;;;;;;;17.24;73.80;100447.56;4992638;28;20542;-79
2021/09/13 03:56:49;;;;;;;6.57;5.97;;;;;;;17.25;73.64;100435.50;5007866;28;20404;-79
2021/09/13 03:59:14;;;;;;;6.40;5.83;;;;;;;17.27;73.87;100444.25;4998467;28;20410;-79
2021/09/13 04:01:40;;;;;;;6.30;5.90;;;;;;;17.31;73.65;100442.56;4996215;28;20406;-78
2021/09/13 04:04:06;;;;;;;10.93;6.33;;;;;;;17.35;73.50;100434.59;5008624;28;20409;-78
2021/09/13 04:11:54;;;;;;;8.40;6.10;;;;;;;17.27;72.21;100432.47;4995474;28;20754;-79
2021/09/13 04:14:20;;;;;;;8.00;5.90;;;;;;;17.22;72.42;100443.47;4997095;28;20961;-79
2021/09/13 04:16:46;;;;;;;6.38;5.80;;;;;;;17.18;72.34;100440.50;5005844;28;20969;-79
2021/09/13 04:19:11;;;;;;;8.67;5.90;;;;;;;17.17;72.34;100446.25;4995172;28;20414;-79
2021/09/13 04:21:37;;;;;;;9.85;6.43;;;;;;;17.16;72.16;100439.16;4994885;28;20421;-79
2021/09/13 04:24:03;;;;;;;6.32;5.72;;;;;;;17.12;72.28;100441.66;5002420;28;20457;-79
2021/09/13 04:26:28;;;;;;;6.32;5.82;;;;;;;17.03;72.37;100444.19;4998526;28;20421;-79
2021/09/13 04:28:54;;;;;;;10.80;6.27;;;;;;;17.02;72.41;100444.50;4995802;28;20477;-79
2021/09/13 04:31:19;;;;;;;6.80;6.23;;;;;;;16.98;72.72;100444.25;4999276;28;20430;-79
2021/09/13 04:33:44;;;;;;;6.80;6.07;;;;;;;17.00;73.33;100450.25;4992122;28;20878;-79
2021/09/13 04:36:09;;;;;;;6.00;5.60;;;;;;;17.03;73.67;100440.63;4993999;28;20422;-79
2021/09/13 04:38:35;;;;;;;6.87;5.90;;;;;;;17.05;73.86;100435.69;5009046;28;20417;-79
2021/09/13 04:41:00;;;;;;;6.00;5.57;;;;;;;17.07;73.88;100431.56;5007631;28;20408;-79
2021/09/13 04:43:26;;;;;;;8.93;6.80;;;;;;;16.99;74.07;100440.38;4992902;28;20909;-79
2021/09/13 04:45:51;;;;;;;7.83;6.07;;;;;;;16.97;74.34;100428.91;4992159;28;20766;-79
2021/09/13 04:48:16;;;;;;;6.93;5.95;;;;;;;17.03;74.23;100435.16;4999761;28;20793;-78
2021/09/13 04:50:41;;;;;;;8.10;6.57;;;;;;;17.07;74.13;100436.22;4997276;28;20402;-79
2021/09/13 04:53:07;;;;;;;6.73;5.90;;;;;;;17.09;74.00;100439.50;4997848;28;20445;-80
2021/09/13 04:55:34;;;;;;;14.13;6.30;;;;;;;17.12;73.97;100438.94;4995968;28;20954;-78
2021/09/13 04:57:59;;;;;;;6.68;6.07;;;;;;;17.13;73.86;100449.56;4999513;28;20435;-78
2021/09/13 05:00:25;;;;;;;7.77;6.23;;;;;;;17.09;74.28;100445.78;5010961;28;20440;-79
2021/09/13 05:02:50;;;;;;;7.23;5.57;;;;;;;17.07;74.37;100441.69;4992980;28;20419;-78
2021/09/13 05:05:15;;;;;;;6.67;5.80;;;;;;;17.09;74.28;100436.75;4995517;28;20802;-79
2021/09/13 05:07:41;;;;;;;7.83;6.43;;;;;;;17.11;74.05;100437.28;5002595;28;20405;-79
2021/09/13 05:10:06;;;;;;;6.70;6.10;;;;;;;17.11;74.23;100437.28;5002689;28;20502;-79
2021/09/13 05:12:32;;;;;;;7.67;5.57;;;;;;;17.11;74.13;100437.28;5003320;28;20405;-79
2021/09/13 05:14:57;;;;;;;10.70;6.20;;;;;;;17.12;74.15;100433.44;5029264;28;20692;-79
2021/09/13 05:17:22;;;;;;;7.93;6.13;;;;;;;17.07;74.42;100444.44;4994412;28;20798;-79
2021/09/13 05:19:47;;;;;;;9.57;5.60;;;;;;;17.04;74.68;100437.63;4999737;28;20404;-79
2021/09/13 05:22:13;;;;;;;8.90;5.60;;;;;;;17.03;74.64;100440.63;4994666;28;20415;-79
2021/09/13 05:24:38;;;;;;;6.63;5.53;;;;;;;17.02;74.60;100436.28;5004201;28;20907;-79
2021/09/13 05:27:04;;;;;;;6.20;5.60;;;;;;;16.98;74.74;100444.25;4990728;28;21004;-79
2021/09/13 05:29:29;;;;;;;9.93;5.57;;;;;;;17.00;74.51;100446.69;4990768;28;20406;-79
2021/09/13 05:31:54;;;;;;;7.97;5.93;;;;;;;16.95;74.67;100452.22;4999382;28;20405;-77
2021/09/13 05:34:20;;;;;;;6.00;5.50;;;;;;;16.87;74.85;100445.44;4994911;28;20416;-77
2021/09/13 05:36:45;;;;;;;6.40;5.80;;;;;;;16.89;75.09;100450.63;4997271;28;20432;-78
2021/09/13 05:39:11;;;;;;;7.07;6.07;;;;;;;16.91;75.37;100453.88;5005642;28;20413;-79
2021/09/13 05:41:36;;;;;;;6.83;6.30;;;;;;;16.92;75.02;100445.41;5017433;28;20492;-79
2021/09/13 05:44:02;;;;;;;6.82;6.30;;;;;;;16.91;75.27;100451.97;5004481;28;20424;-79
2021/09/13 05:46:27;;;;;;;6.50;6.00;;;;;;;16.98;75.06;100446.97;4993957;28;20395;-79
2021/09/13 05:48:52;;;;;;;7.00;6.30;;;;;;;17.03;75.11;100446.94;5019967;28;20415;-78
2021/09/13 05:51:17;;;;;;;9.02;6.55;;;;;;;17.07;74.78;100455.38;5003538;28;20398;-79
2021/09/13 05:53:43;;;;;;;7.07;6.37;;;;;;;17.11;74.74;100456.44;5003805;28;20501;-78
2021/09/13 05:56:08;;;;;;;8.53;6.27;;;;;;;17.13;74.75;100463.25;4994960;28;20422;-77
2021/09/13 05:58:34;;;;;;;8.65;6.50;;;;;;;17.11;74.54;100460.00;5003756;28;20464;-79
2021/09/13 06:01:00;;;;;;;7.07;6.40;;;;;;;17.12;74.45;100461.63;5004005;28;20418;-77
2021/09/13 06:03:25;;;;;;;7.88;6.00;;;;;;;17.13;74.69;100466.00;4998897;28;20408;-78
2021/09/13 06:05:50;;;;;;;6.20;5.80;;;;;;;17.23;74.45;100467.00;4995379;28;20438;-80
2021/09/13 06:08:15;;;;;;;7.97;5.82;;;;;;;17.27;74.05;100466.16;5002223;28;20423;-78
2021/09/13 06:10:41;;;;;;;6.23;5.60;;;;;;;17.30;73.88;100462.84;5002346;28;20408;-80
2021/09/13 06:13:11;;;;;;;7.13;5.60;;;;;;;17.27;73.89;100468.06;5001167;28;20461;-79
2021/09/13 06:15:36;;;;;;;7.10;6.27;;;;;;;17.22;73.99;100470.88;4998812;28;20976;-83
2021/09/13 06:18:01;;;;;;;6.63;6.03;;;;;;;17.26;74.16;100472.72;4999935;28;20498;-83
2021/09/13 06:20:27;;;;;;;6.67;6.07;;;;;;;17.34;73.86;100474.03;5020809;28;20406;-80
2021/09/13 06:22:52;;;;;;;11.80;6.03;;;;;;;17.37;73.80;100463.31;5008886;28;20499;-82
2021/09/13 06:25:17;;;;;;;6.13;5.63;;;;;;;17.38;73.92;100477.84;5009958;28;20824;-83
2021/09/13 06:27:43;;;;;;;8.60;5.43;;;;;;;17.40;73.55;100481.09;5004306;28;20409;-81
2021/09/13 06:30:09;;;;;;;7.77;5.57;;;;;;;17.45;73.39;100487.31;4993630;28;20441;-82
2021/09/13 06:32:34;;;;;;;6.22;5.70;;;;;;;17.39;73.14;100491.22;4998382;28;20438;-84
2021/09/13 06:35:00;;;;;;;8.43;6.47;;;;;;;17.38;73.02;100491.53;4993451;28;20450;-83
2021/09/13 06:37:25;;;;;;;18.77;7.67;;;;;;;17.39;73.29;100499.44;4995211;28;20419;-83
2021/09/13 06:39:57;;;;;;;23.02;8.30;;;;;;;17.48;73.24;100500.47;5001703;28;21308;-83
2021/09/13 06:42:22;;;;;;;7.40;6.43;;;;;;;17.50;72.91;100500.16;4999154;28;20486;-80
2021/09/13 06:44:49;;;;;;;6.03;5.50;;;;;;;17.48;72.85;100502.38;5007050;28;20922;-82
2021/09/13 06:47:33;;;;;;;7.85;5.88;;;;;;;17.53;72.87;100505.06;4999675;28;20931;-83
2021/09/13 06:49:58;;;;;;;8.20;6.50;;;;;;;17.54;73.06;100496.56;4998707;28;20508;-83
2021/09/13 06:52:23;;;;;;;47.83;10.38;;;;;;;17.52;73.01;100500.69;5006400;28;20977;-83
2021/09/13 06:54:49;;;;;;;73.17;13.57;;;;;;;17.51;72.95;100499.06;4992826;28;20418;-83
2021/09/13 06:57:14;;;;;;;8.40;5.50;;;;;;;17.50;72.84;100502.91;5005554;28;20428;-82
2021/09/13 06:59:41;;;;;;;35.40;7.20;;;;;;;17.58;72.80;100505.84;5005378;28;20420;-82
2021/09/13 07:02:08;;;;;;;7.18;6.38;;;;;;;17.63;72.39;100494.84;4993908;28;20410;-83
2021/09/13 07:04:33;;;;;;;9.40;6.03;;;;;;;17.66;72.14;100501.66;4995616;28;20417;-80
2021/09/13 07:06:58;;;;;;;8.18;6.55;;;;;;;17.67;71.99;100491.53;4999522;28;20398;-84
2021/09/13 07:09:23;;;;;;;7.27;6.50;;;;;;;17.73;72.08;100482.13;4999772;28;20911;-81
2021/09/13 07:11:49;;;;;;;6.40;5.90;;;;;;;17.76;72.01;100496.06;5018097;28;20397;-81
2021/09/13 07:14:14;;;;;;;7.87;6.07;;;;;;;17.81;72.05;100493.28;4999152;28;20413;-81
2021/09/13 07:16:39;;;;;;;7.63;6.33;;;;;;;17.84;71.56;100495.44;4992752;28;20426;-82
2021/09/13 07:19:05;;;;;;;7.17;6.33;;;;;;;17.87;70.96;100507.75;5006143;28;20951;-82
2021/09/13 07:21:32;;;;;;;8.60;5.77;;;;;;;17.88;71.04;100496.47;4998120;28;20409;-81
2021/09/13 07:23:57;;;;;;;7.85;6.35;;;;;;;17.91;70.66;100498.66;5001841;28;20408;-81
2021/09/13 07:26:23;;;;;;;7.60;5.87;;;;;;;17.92;70.55;100499.44;5004299;28;20414;-82
2021/09/13 07:28:48;;;;;;;8.50;6.00;;;;;;;17.93;70.48;100496.44;4995555;28;20414;-82
2021/09/13 07:31:13;;;;;;;6.60;5.40;;;;;;;17.97;70.72;100499.41;4999993;28;20411;-82
2021/09/13 07:33:39;;;;;;;7.70;5.97;;;;;;;17.99;70.71;100499.91;4997466;28;20405;-81
2021/09/13 07:36:04;;;;;;;8.57;5.90;;;;;;;18.06;70.75;100506.69;4998797;28;20436;-81
2021/09/13 07:38:29;;;;;;;5.82;5.32;;;;;;;18.09;70.45;100503.34;5000922;28;20541;-81
2021/09/13 07:40:54;;;;;;;6.10;5.50;;;;;;;18.15;70.59;100501.34;4995488;28;20410;-81
2021/09/13 07:43:20;;;;;;;7.17;6.10;;;;;;;18.17;70.30;100507.38;4999412;28;20410;-81
2021/09/13 07:45:45;;;;;;;7.93;6.30;;;;;;;18.21;70.26;100516.63;4992800;28;20410;-81
2021/09/13 07:48:10;;;;;;;6.90;5.68;;;;;;;18.24;70.42;100507.03;5004592;28;20406;-81
2021/09/13 07:50:36;;;;;;;7.07;6.30;;;;;;;18.22;70.06;100501.81;4996194;28;20890;-81
2021/09/13 07:53:01;;;;;;;8.83;6.53;;;;;;;18.21;70.29;100500.19;4995455;28;20422;-81
2021/09/13 07:55:26;;;;;;;9.77;6.43;;;;;;;18.25;70.29;100501.22;5003290;28;20799;-82
2021/09/13 07:57:52;;;;;;;9.33;6.40;;;;;;;18.32;70.06;100509.09;5003304;28;20413;-82
2021/09/13 08:00:17;;;;;;;10.50;6.40;;;;;;;18.36;70.00;100513.72;4992079;28;20398;-81
2021/09/13 08:02:43;;;;;;;7.10;6.40;;;;;;;18.34;69.86;100510.44;4993444;28;20403;-81
2021/09/13 08:05:09;;;;;;;6.87;6.27;;;;;;;18.35;69.65;100514.81;4999235;28;20410;-81
2021/09/13 08:07:34;;;;;;;8.88;6.63;;;;;;;18.41;69.98;100529.28;4993246;28;20407;-83
2021/09/13 08:10:00;;;;;;;8.00;6.55;;;;;;;18.43;70.02;100521.59;4992514;28;20425;-81
2021/09/13 08:12:25;;;;;;;7.47;5.80;;;;;;;18.50;70.04;100524.81;5006394;28;20407;-80
2021/09/13 08:14:51;;;;;;;6.83;6.23;;;;;;;18.51;69.70;100532.72;5001177;28;20410;-81
2021/09/13 08:17:16;;;;;;;7.97;6.50;;;;;;;18.55;69.80;100527.47;5006939;28;20537;-83
2021/09/13 08:19:44;;;;;;;7.97;5.83;;;;;;;18.57;69.61;100544.47;5027579;28;20817;-81
2021/09/13 08:22:12;;;;;;;7.38;6.68;;;;;;;18.62;69.32;100550.69;4996280;28;20840;-81
2021/09/13 08:24:38;;;;;;;7.30;6.70;;;;;;;18.67;69.42;100539.63;4998165;28;20496;-82
2021/09/13 08:27:04;;;;;;;16.23;6.70;;;;;;;18.74;69.35;100536.53;4998888;28;20492;-82
2021/09/13 08:29:29;;;;;;;10.15;5.88;;;;;;;18.85;69.56;100537.19;4997964;28;20489;-82
2021/09/13 08:31:56;;;;;;;6.90;6.20;;;;;;;18.91;69.27;100541.50;4992092;28;20489;-82
2021/09/13 08:34:22;;;;;;;7.43;6.72;;;;;;;18.93;69.34;100545.59;4990880;28;20942;-82
2021/09/13 08:36:48;;;;;;;7.03;6.28;;;;;;;18.96;69.17;100539.50;4991963;28;20466;-83
2021/09/13 08:39:14;;;;;;;6.75;6.03;;;;;;;19.00;69.25;100543.25;5000548;28;20773;-83
2021/09/13 08:41:41;;;;;;;9.32;6.00;;;;;;;19.06;69.10;100549.50;4991863;28;20412;-81
2021/09/13 08:44:08;;;;;;;8.88;6.07;;;;;;;19.07;68.72;100557.44;5035122;28;20413;-84
2021/09/13 08:46:58;;;;;;;7.63;5.83;;;;;;;19.13;68.36;100552.69;4998249;28;20482;-80
2021/09/13 08:49:30;;;;;;;6.38;5.82;;;;;;;19.16;68.62;100552.88;4996225;28;20411;-83
2021/09/13 08:51:56;;;;;;;7.50;5.53;;;;;;;19.23;68.45;100555.28;4993702;28;20445;-80
2021/09/13 08:54:24;;;;;;;5.60;5.10;;;;;;;19.27;68.40;100561.78;4998177;28;20889;-80
2021/09/13 08:56:56;;;;;;;6.65;5.43;;;;;;;19.35;68.06;100558.38;4995424;28;20422;-81
2021/09/13 08:59:24;;;;;;;6.03;5.38;;;;;;;19.45;67.98;100562.91;4992792;28;20415;-78
2021/09/13 09:01:53;;;;;;;7.38;5.32;;;;;;;19.54;67.50;100561.91;5004370;28;20939;-77
2021/09/13 09:04:20;;;;;;;6.43;5.28;;;;;;;19.65;67.45;100562.56;5003971;28;20409;-78
2021/09/13 09:06:46;;;;;;;5.18;4.78;;;;;;;19.81;66.78;100560.34;4993554;28;20420;-77
2021/09/13 09:09:14;;;;;;;6.60;5.80;;;;;;;19.98;66.31;100566.88;5000392;28;20417;-78
2021/09/13 09:12:02;;;;;;;5.82;5.13;;;;;;;20.05;65.68;100569.22;4998611;28;20410;-78
2021/09/13 09:14:39;;;;;;;7.87;5.57;;;;;;;20.24;65.66;100558.13;4997175;28;20476;-78
2021/09/13 09:17:08;;;;;;;6.63;4.83;;;;;;;20.40;65.22;100562.22;4995340;28;20524;-79
2021/09/13 09:19:34;;;;;;;6.97;5.25;;;;;;;20.50;64.65;100554.56;5005862;28;20404;-79
2021/09/13 09:22:26;;;;;;;6.28;4.53;;;;;;;20.54;64.24;100557.50;4995906;28;20452;-80
2021/09/13 09:24:53;;;;;;;5.63;4.68;;;;;;;20.70;64.09;100558.81;4998645;28;20800;-79
2021/09/13 09:27:19;;;;;;;5.38;3.92;;;;;;;20.93;63.66;100562.41;5001130;28;20413;-81
2021/09/13 09:29:44;;;;;;;4.70;3.70;;;;;;;21.29;62.63;100560.47;5006181;28;20872;-80
2021/09/13 09:32:17;;;;;;;4.70;3.80;;;;;;;21.73;60.92;100556.84;4997617;28;20421;-81
2021/09/13 09:34:44;;;;;;;4.32;3.92;;;;;;;22.24;59.69;100553.50;4995393;28;20497;-80
2021/09/13 09:37:12;;;;;;;6.20;3.70;;;;;;;22.77;57.98;100560.81;4997601;28;20426;-79
2021/09/13 09:39:38;;;;;;;3.75;3.30;;;;;;;23.17;56.71;100559.50;4998026;28;20486;-79
2021/09/13 09:42:07;;;;;;;5.20;3.20;;;;;;;23.53;55.08;100559.16;4997473;28;20909;-80
2021/09/13 09:44:33;;;;;;;9.63;4.15;;;;;;;24.03;54.17;100562.13;4994974;28;20406;-81
2021/09/13 09:47:08;;;;;;;3.25;3.03;;;;;;;24.55;52.25;100557.97;5000870;28;20434;-80
2021/09/13 09:50:00;;;;;;;3.38;3.15;;;;;;;25.20;50.41;100562.03;4995020;28;20465;-83
2021/09/13 09:52:27;;;;;;;2.90;2.65;;;;;;;25.71;49.04;100558.81;4999572;28;20418;-80
2021/09/13 09:55:13;;;;;;;3.42;2.63;;;;;;;26.06;47.81;100550.84;5002139;28;20428;-83
2021/09/13 09:57:41;;;;;;;2.63;2.43;;;;;;;26.54;46.39;100547.28;4997519;28;20433;-82
2021/09/13 10:00:34;;;;;;;3.60;2.40;;;;;;;27.21;44.41;100540.97;5030374;28;20393;-80
2021/09/13 10:02:59;;;;;;;3.10;2.22;;;;;;;27.45;44.18;100531.75;4999359;28;20429;-83
2021/09/13 10:05:27;;;;;;;2.63;2.43;;;;;;;27.99;43.20;100540.31;4996965;28;20868;-79
2021/09/13 10:07:52;;;;;;;3.67;2.47;;;;;;;28.71;41.37;100538.94;4994217;28;20509;-81
2021/09/13 10:10:19;;;;;;;3.88;2.50;;;;;;;29.25;40.24;100535.28;5005084;28;20446;-79
2021/09/13 10:12:46;;;;;;;2.60;2.40;;;;;;;29.80;39.24;100526.34;5004059;28;20404;-79
2021/09/13 10:15:12;;;;;;;3.80;2.97;;;;;;;30.33;37.61;100521.69;4996034;28;20485;-78
2021/09/13 10:17:37;;;;;;;2.40;2.30;;;;;;;30.80;36.51;100525.97;5001237;28;20495;-79
2021/09/13 10:20:05;;;;;;;3.17;2.50;;;;;;;31.33;35.82;100512.66;4998233;28;20816;-79
2021/09/13 10:22:33;;;;;;;2.65;2.42;;;;;;;32.06;34.38;100505.41;5014335;28;20552;-78
2021/09/13 10:24:59;;;;;;;2.40;2.08;;;;;;;32.53;33.63;100505.34;5015088;28;20404;-80
2021/09/13 10:27:25;;;;;;;4.60;2.47;;;;;;;33.07;32.42;100507.22;4996456;28;20399;-79
2021/09/13 10:30:08;;;;;;;3.75;2.03;;;;;;;33.62;31.39;100504.22;4994462;28;20489;-79
2021/09/13 10:32:34;;;;;;;2.90;2.23;;;;;;;33.85;30.82;100502.59;4994922;28;20408;-79
2021/09/13 10:34:59;;;;;;;2.37;2.20;;;;;;;33.83;30.63;100504.22;4999377;28;20782;-78
2021/09/13 10:37:26;;;;;;;2.20;2.00;;;;;;;33.74;31.13;100501.81;5029231;28;20509;-80
2021/09/13 10:39:51;;;;;;;4.07;2.63;;;;;;;33.43;31.36;100496.13;5001618;28;20905;-77
2021/09/13 10:42:43;;;;;;;5.30;2.85;;;;;;;33.37;31.55;100495.69;5011614;28;20411;-80
2021/09/13 10:45:20;;;;;;;2.77;1.90;;;;;;;33.42;31.65;100494.50;5003815;28;20488;-77
2021/09/13 10:47:59;;;;;;;2.80;1.80;;;;;;;33.25;31.60;100490.47;4993738;28;20492;-78
2021/09/13 10:50:45;;;;;;;4.23;2.80;;;;;;;33.34;31.56;100494.50;4994048;28;20502;-79
2021/09/13 10:53:17;;;;;;;2.35;2.10;;;;;;;33.48;31.09;100496.53;4996163;28;20481;-79
2021/09/13 10:55:49;;;;;;;4.32;1.80;;;;;;;33.11;32.17;100490.41;4992449;28;20446;-81
2021/09/13 10:58:39;;;;;;;2.13;1.88;;;;;;;33.26;31.89;100486.47;4992589;28;20445;-79
2021/09/13 11:01:10;;;;;;;3.38;2.20;;;;;;;33.19;31.65;100492.88;4998377;28;20768;-80
2021/09/13 11:03:38;;;;;;;2.10;2.00;;;;;;;33.03;31.85;100478.31;5007258;28;20417;-79
2021/09/13 11:06:06;;;;;;;1.95;1.90;;;;;;;32.88;32.43;100485.91;4998322;28;20780;-79
2021/09/13 11:08:37;;;;;;;1.90;1.80;;;;;;;32.61;32.67;100480.94;4993376;28;20421;-78
2021/09/13 11:11:11;;;;;;;1.98;1.80;;;;;;;32.40;32.76;100485.19;4997088;28;20427;-78
2021/09/13 11:13:37;;;;;;;2.28;1.90;;;;;;;32.16;32.71;100471.84;5006156;28;20408;-79
2021/09/13 11:16:03;;;;;;;4.30;1.70;;;;;;;32.02;33.31;100466.09;4989549;28;20425;-78
2021/09/13 11:18:43;;;;;;;3.45;1.77;;;;;;;32.02;33.92;100468.09;4991871;28;20398;-79
2021/09/13 11:21:32;;;;;;;2.05;1.83;;;;;;;32.23;33.07;100462.69;5005458;28;20402;-80
2021/09/13 11:24:26;;;;;;;1.77;1.65;;;;;;;32.41;31.73;100460.78;4992812;28;20433;-78
2021/09/13 11:27:00;;;;;;;2.08;1.70;;;;;;;32.59;31.66;100450.50;4996123;28;20817;-79
2021/09/13 11:29:31;;;;;;;5.72;1.67;;;;;;;32.65;32.46;100451.72;4996234;28;20450;-80